Time;durP1;ratioP1;P1;durP2;ratioP2;P2;SDS_P1;SDS_P2;PMS_P1;PMS_P2;Temp;Humidity;BMP_temperature;BMP_pressure;BME280_temperature;BME280_humidity;BME280_pressure;Samples;Min_cycle;Max_cycle;Signal;HPM_P1;HPM_P2
2022/06/07 00:02:24;;;;;;;7.65;6.72;;;;;;;;;;5085664;28;20029;-82
2022/06/07 00:04:51;;;;;;;9.10;7.05;;;;;;;;;;5077500;28;20089;-81
2022/06/07 00:07:17;;;;;;;8.60;6.93;;;;;;;;;;5076289;28;20036;-82
2022/06/07 00:09:43;;;;;;;8.80;6.65;;;;;;;;;;5089227;28;20028;-81
2022/06/07 00:12:09;;;;;;;9.02;6.70;;;;;;;;;;5094175;28;20012;-81
2022/06/07 00:14:36;;;;;;;8.18;6.32;;;;;;;;;;5088078;28;20013;-81
2022/06/07 00:17:03;;;;;;;9.45;6.65;;;;;;;;;;5076080;28;20021;-82
2022/06/07 00:19:29;;;;;;;6.95;5.72;;;;;;;;;;5075942;28;20025;-81
2022/06/07 00:21:55;;;;;;;8.18;6.18;;;;;;;;;;5075455;28;20076;-82
2022/06/07 00:24:21;;;;;;;7.70;6.15;;;;;;;;;;5075227;28;20025;-82
2022/06/07 00:26:47;;;;;;;8.20;6.75;;;;;;;;;;5076253;28;20021;-82
2022/06/07 00:29:13;;;;;;;7.97;6.50;;;;;;;;;;5090424;28;20389;-82
2022/06/07 00:31:40;;;;;;;9.45;7.22;;;;;;;;;;5096422;28;20104;-82
2022/06/07 00:34:06;;;;;;;8.60;7.20;;;;;;;;;;5097101;28;20035;-81
2022/06/07 00:36:33;;;;;;;9.95;7.50;;;;;;;;;;5075962;28;20059;-82
2022/06/07 00:38:59;;;;;;;7.80;6.63;;;;;;;;;;5082163;28;20042;-82
2022/06/07 00:41:25;;;;;;;8.52;6.80;;;;;;;;;;5086908;28;20029;-82
2022/06/07 00:44:10;;;;;;;8.25;6.43;;;;;;;;;;5093462;28;20036;-82
2022/06/07 00:46:36;;;;;;;8.15;6.15;;;;;;;;;;5095142;28;20016;-81
2022/06/07 00:49:02;;;;;;;8.25;6.45;;;;;;;;;;5086403;28;20025;-82
2022/06/07 00:51:28;;;;;;;8.43;6.70;;;;;;;;;;5074144;28;20033;-82
2022/06/07 00:53:54;;;;;;;8.23;7.30;;;;;;;;;;5074992;28;20021;-82
2022/06/07 00:56:20;;;;;;;9.95;6.88;;;;;;;;;;5074990;28;20059;-82
2022/06/07 00:58:46;;;;;;;9.40;6.97;;;;;;;;;;5083919;28;20029;-82
2022/06/07 01:01:12;;;;;;;8.65;7.28;;;;;;;;;;5083706;28;20016;-81
2022/06/07 01:03:38;;;;;;;9.50;7.07;;;;;;;;;;5095032;28;20589;-82
2022/06/07 01:11:34;;;;;;;7.93;6.78;;;;;;;;;;5089111;28;20097;-82
2022/06/07 01:14:01;;;;;;;9.25;6.60;;;;;;;;;;5081652;28;20039;-82
2022/06/07 01:16:27;;;;;;;9.40;7.18;;;;;;;;;;5074254;28;20105;-81
2022/06/07 01:18:53;;;;;;;8.98;7.38;;;;;;;;;;5073970;28;20008;-81
2022/06/07 01:21:28;;;;;;;8.90;7.65;;;;;;;;;;5073905;28;20025;-81
2022/06/07 01:23:55;;;;;;;7.95;6.30;;;;;;;;;;5073305;28;20025;-81
2022/06/07 01:26:21;;;;;;;7.60;6.78;;;;;;;;;;5081971;28;20033;-82
2022/06/07 01:28:47;;;;;;;9.57;6.47;;;;;;;;;;5070202;28;20024;-81
2022/06/07 01:31:13;;;;;;;8.25;6.50;;;;;;;;;;5074218;28;20049;-82
2022/06/07 01:33:39;;;;;;;8.32;6.57;;;;;;;;;;5073735;28;20059;-82
2022/06/07 01:36:11;;;;;;;7.80;6.35;;;;;;;;;;5088322;28;20033;-82
2022/06/07 01:38:38;;;;;;;8.05;6.85;;;;;;;;;;5092337;28;20079;-81
2022/06/07 01:43:49;;;;;;;8.57;6.80;;;;;;;;;;5091010;28;20039;-81
2022/06/07 01:46:16;;;;;;;7.95;6.63;;;;;;;;;;5080010;28;20115;-81
2022/06/07 01:48:42;;;;;;;9.68;7.03;;;;;;;;;;5091940;28;20033;-81
2022/06/07 01:51:09;;;;;;;8.15;6.88;;;;;;;;;;5088570;28;20032;-81
2022/06/07 01:53:35;;;;;;;8.38;6.88;;;;;;;;;;5078298;28;20025;-81
2022/06/07 01:56:10;;;;;;;9.18;7.05;;;;;;;;;;5085101;28;20085;-81
2022/06/07 01:58:37;;;;;;;9.50;7.07;;;;;;;;;;5073176;28;20015;-82
2022/06/07 02:01:03;;;;;;;9.77;6.57;;;;;;;;;;5073324;28;20025;-82
2022/06/07 02:03:29;;;;;;;7.43;6.30;;;;;;;;;;5073913;28;20035;-82
2022/06/07 02:05:59;;;;;;;8.43;6.38;;;;;;;;;;5073932;28;20065;-82
2022/06/07 02:08:26;;;;;;;8.30;6.50;;;;;;;;;;5081225;28;20044;-82
2022/06/07 02:10:52;;;;;;;9.90;7.25;;;;;;;;;;5094426;28;20051;-82
2022/06/07 02:13:19;;;;;;;8.43;7.28;;;;;;;;;;5094701;28;20023;-82
2022/06/07 02:15:45;;;;;;;9.68;8.10;;;;;;;;;;5090679;28;20075;-82
2022/06/07 02:18:11;;;;;;;9.10;7.07;;;;;;;;;;5085119;28;20025;-82
2022/06/07 02:20:37;;;;;;;9.85;7.60;;;;;;;;;;5077683;28;20024;-81
2022/06/07 02:23:03;;;;;;;8.25;6.93;;;;;;;;;;5091143;28;20040;-82
2022/06/07 02:25:30;;;;;;;11.10;7.38;;;;;;;;;;5093115;28;20000;-81
2022/06/07 02:27:56;;;;;;;8.13;7.05;;;;;;;;;;5093337;28;20096;-81
2022/06/07 02:30:22;;;;;;;8.07;6.82;;;;;;;;;;5081836;28;20044;-82
2022/06/07 02:32:48;;;;;;;9.00;7.80;;;;;;;;;;5076369;28;20087;-81
2022/06/07 02:35:14;;;;;;;7.95;6.38;;;;;;;;;;5068578;28;20029;-82
2022/06/07 02:37:40;;;;;;;8.27;7.10;;;;;;;;;;5077571;28;20020;-81
2022/06/07 02:40:07;;;;;;;9.75;7.50;;;;;;;;;;5084897;28;20029;-81
2022/06/07 02:42:34;;;;;;;10.00;8.13;;;;;;;;;;5068253;28;20033;-81
2022/06/07 02:45:00;;;;;;;8.77;6.90;;;;;;;;;;5069486;28;20032;-81
2022/06/07 02:47:26;;;;;;;10.93;7.72;;;;;;;;;;5068965;28;20017;-81
2022/06/07 02:49:52;;;;;;;11.85;8.38;;;;;;;;;;5067650;28;20079;-81
2022/06/07 02:52:19;;;;;;;12.95;8.18;;;;;;;;;;5072256;28;20025;-81
2022/06/07 02:54:45;;;;;;;9.02;7.93;;;;;;;;;;5080476;28;20107;-82
2022/06/07 02:57:11;;;;;;;10.27;7.20;;;;;;;;;;5087037;28;20096;-82
2022/06/07 02:59:37;;;;;;;10.52;8.00;;;;;;;;;;5092356;28;20029;-82
2022/06/07 03:02:05;;;;;;;9.02;7.78;;;;;;;;;;5092130;28;20032;-82
2022/06/07 03:04:31;;;;;;;9.63;7.93;;;;;;;;;;5074077;28;20069;-82
2022/06/07 03:06:57;;;;;;;10.52;8.18;;;;;;;;;;5070490;28;20025;-82
2022/06/07 03:09:23;;;;;;;10.85;8.25;;;;;;;;;;5088405;28;20158;-82
2022/06/07 03:11:49;;;;;;;10.68;8.05;;;;;;;;;;5087439;28;20032;-82
2022/06/07 03:14:15;;;;;;;9.30;7.88;;;;;;;;;;5092957;28;20044;-82
2022/06/07 03:16:42;;;;;;;10.50;8.43;;;;;;;;;;5090159;28;20029;-82
2022/06/07 03:19:08;;;;;;;10.43;8.10;;;;;;;;;;5088861;28;20034;-82
2022/06/07 03:21:34;;;;;;;10.88;8.07;;;;;;;;;;5070584;28;20031;-81
2022/06/07 03:24:00;;;;;;;8.98;7.53;;;;;;;;;;5071557;28;20032;-82
2022/06/07 03:26:27;;;;;;;12.63;8.75;;;;;;;;;;5071317;28;20084;-81
2022/06/07 03:28:53;;;;;;;10.40;8.68;;;;;;;;;;5070336;28;20036;-82
2022/06/07 03:31:19;;;;;;;10.48;8.63;;;;;;;;;;5072280;28;20044;-81
2022/06/07 03:33:47;;;;;;;10.95;8.75;;;;;;;;;;5066268;28;20017;-82
2022/06/07 03:36:24;;;;;;;9.73;7.80;;;;;;;;;;5072660;28;19997;-84
2022/06/07 03:38:51;;;;;;;10.35;8.48;;;;;;;;;;5075911;28;20017;-84
2022/06/07 03:41:18;;;;;;;8.65;7.72;;;;;;;;;;5080216;28;20037;-84
2022/06/07 03:43:44;;;;;;;9.98;8.07;;;;;;;;;;5095651;28;20407;-85
2022/06/07 03:46:12;;;;;;;9.23;7.60;;;;;;;;;;5097221;28;20028;-84
2022/06/07 03:48:38;;;;;;;9.52;7.95;;;;;;;;;;5114485;28;20035;-82
2022/06/07 03:51:06;;;;;;;9.80;8.80;;;;;;;;;;5082085;28;20084;-82
2022/06/07 03:53:32;;;;;;;10.10;8.45;;;;;;;;;;5074273;28;20045;-82
2022/06/07 03:55:59;;;;;;;10.30;9.07;;;;;;;;;;5087980;28;20055;-82
2022/06/07 03:58:25;;;;;;;9.73;8.43;;;;;;;;;;5084596;28;20009;-82
2022/06/07 04:00:51;;;;;;;10.32;8.32;;;;;;;;;;5084209;28;20035;-82
2022/06/07 04:03:17;;;;;;;9.73;8.48;;;;;;;;;;5093790;28;20035;-81
2022/06/07 04:05:44;;;;;;;10.32;8.02;;;;;;;;;;5092328;28;20025;-82
2022/06/07 04:08:13;;;;;;;10.15;8.65;;;;;;;;;;5082196;28;20039;-82
2022/06/07 04:10:46;;;;;;;10.80;8.25;;;;;;;;;;5091004;28;20028;-82
2022/06/07 04:13:14;;;;;;;11.38;9.38;;;;;;;;;;5091396;28;20100;-82
2022/06/07 04:15:40;;;;;;;10.40;8.75;;;;;;;;;;5089675;28;20029;-83
2022/06/07 04:18:07;;;;;;;9.95;8.65;;;;;;;;;;5085431;28;20028;-82
2022/06/07 04:20:33;;;;;;;9.73;8.30;;;;;;;;;;5084828;28;20013;-82
2022/06/07 04:22:59;;;;;;;11.13;9.20;;;;;;;;;;5084129;28;20040;-81
2022/06/07 04:25:27;;;;;;;11.07;9.63;;;;;;;;;;5079215;28;20025;-81
2022/06/07 04:27:53;;;;;;;10.30;8.70;;;;;;;;;;5086227;28;20017;-82
2022/06/07 04:30:19;;;;;;;11.55;8.88;;;;;;;;;;5090362;28;20141;-83
2022/06/07 04:32:49;;;;;;;10.30;8.88;;;;;;;;;;5089293;28;20115;-82
2022/06/07 04:35:17;;;;;;;11.93;9.23;;;;;;;;;;5088659;28;20062;-83
2022/06/07 04:37:44;;;;;;;10.40;9.13;;;;;;;;;;5076665;28;20029;-84
2022/06/07 04:40:10;;;;;;;11.20;8.77;;;;;;;;;;5072331;28;20025;-83
2022/06/07 04:42:36;;;;;;;10.50;8.82;;;;;;;;;;5071102;28;20021;-82
2022/06/07 04:45:02;;;;;;;12.35;10.50;;;;;;;;;;5070875;28;20028;-82
2022/06/07 04:47:28;;;;;;;11.65;9.50;;;;;;;;;;5071764;28;20028;-82
2022/06/07 04:49:54;;;;;;;13.80;10.20;;;;;;;;;;5083276;28;20032;-82
2022/06/07 04:52:20;;;;;;;11.35;10.10;;;;;;;;;;5088972;28;20033;-82
2022/06/07 04:54:46;;;;;;;13.52;9.63;;;;;;;;;;5071784;28;20012;-82
2022/06/07 04:57:12;;;;;;;11.65;9.70;;;;;;;;;;5086964;28;20100;-83
2022/06/07 04:59:38;;;;;;;11.52;9.88;;;;;;;;;;5089902;28;20092;-83
2022/06/07 05:02:04;;;;;;;14.13;9.75;;;;;;;;;;5091239;28;20563;-84
2022/06/07 05:04:30;;;;;;;10.15;9.00;;;;;;;;;;5088853;28;20023;-82
2022/06/07 05:06:57;;;;;;;10.55;9.02;;;;;;;;;;5092724;28;20017;-82
2022/06/07 05:09:24;;;;;;;13.02;9.18;;;;;;;;;;5073819;28;20062;-82
2022/06/07 05:11:51;;;;;;;12.75;9.30;;;;;;;;;;5074216;28;20032;-83
2022/06/07 05:14:18;;;;;;;11.63;9.15;;;;;;;;;;5085410;28;20112;-84
2022/06/07 05:16:44;;;;;;;10.80;9.23;;;;;;;;;;5089445;28;20066;-84
2022/06/07 05:19:11;;;;;;;10.80;9.27;;;;;;;;;;5076082;28;20108;-83
2022/06/07 05:21:37;;;;;;;11.57;9.80;;;;;;;;;;5089093;28;20040;-84
2022/06/07 05:24:04;;;;;;;12.27;9.18;;;;;;;;;;5089928;28;20460;-83
2022/06/07 05:26:37;;;;;;;9.65;8.65;;;;;;;;;;5091331;28;20025;-83
2022/06/07 05:29:04;;;;;;;10.10;8.60;;;;;;;;;;5087630;28;20471;-82
2022/06/07 05:31:31;;;;;;;17.90;9.35;;;;;;;;;;5066693;28;20063;-82
2022/06/07 05:33:57;;;;;;;11.68;9.63;;;;;;;;;;5064539;28;20370;-84
2022/06/07 05:36:23;;;;;;;10.38;9.02;;;;;;;;;;5061326;28;20017;-86
2022/06/07 05:38:50;;;;;;;12.68;9.38;;;;;;;;;;5064781;28;20048;-84
2022/06/07 05:41:28;;;;;;;12.45;9.80;;;;;;;;;;5069951;28;20036;-85
2022/06/07 05:43:54;;;;;;;10.93;9.63;;;;;;;;;;5074376;28;20482;-85
2022/06/07 05:46:20;;;;;;;10.18;8.73;;;;;;;;;;5072741;28;20025;-85
2022/06/07 05:48:46;;;;;;;10.93;8.82;;;;;;;;;;5073059;28;20029;-85
2022/06/07 05:51:13;;;;;;;9.68;8.68;;;;;;;;;;5074153;28;20017;-85
2022/06/07 05:53:39;;;;;;;11.00;9.60;;;;;;;;;;5090881;28;20021;-83
2022/06/07 05:56:09;;;;;;;9.63;8.52;;;;;;;;;;5088361;28;20063;-82
2022/06/07 05:58:35;;;;;;;9.90;8.88;;;;;;;;;;5086169;28;20019;-83
2022/06/07 06:01:02;;;;;;;9.98;8.98;;;;;;;;;;5071493;28;20106;-83
2022/06/07 06:03:28;;;;;;;9.85;8.85;;;;;;;;;;5071508;28;20028;-82
2022/06/07 06:05:54;;;;;;;11.05;8.52;;;;;;;;;;5071343;28;20052;-82
2022/06/07 06:11:05;;;;;;;9.80;8.30;;;;;;;;;;5080829;28;20039;-82
2022/06/07 06:13:31;;;;;;;9.70;8.40;;;;;;;;;;5085539;28;20025;-82
2022/06/07 06:16:01;;;;;;;12.35;9.75;;;;;;;;;;5067853;28;21415;-82
2022/06/07 06:18:27;;;;;;;9.93;8.23;;;;;;;;;;5068513;28;20032;-83
2022/06/07 06:20:53;;;;;;;11.80;9.55;;;;;;;;;;5076313;28;20032;-82
2022/06/07 06:23:19;;;;;;;10.00;8.75;;;;;;;;;;5090311;28;20044;-83
2022/06/07 06:25:45;;;;;;;10.07;9.05;;;;;;;;;;5089266;28;20080;-83
2022/06/07 06:28:11;;;;;;;9.07;8.10;;;;;;;;;;5075954;28;20047;-82
2022/06/07 06:30:37;;;;;;;11.27;9.48;;;;;;;;;;5090218;28;20052;-82
2022/06/07 06:33:04;;;;;;;10.70;8.52;;;;;;;;;;5090293;28;20514;-82
2022/06/07 06:35:30;;;;;;;10.93;8.88;;;;;;;;;;5079935;28;20028;-83
2022/06/07 06:37:58;;;;;;;11.40;9.45;;;;;;;;;;5071297;28;20016;-83
2022/06/07 06:40:24;;;;;;;11.07;9.48;;;;;;;;;;5076927;28;20012;-82
2022/06/07 06:42:50;;;;;;;10.98;8.73;;;;;;;;;;5074811;28;20032;-83
2022/06/07 06:45:16;;;;;;;9.35;8.20;;;;;;;;;;5071892;28;20031;-82
2022/06/07 06:47:44;;;;;;;11.90;9.52;;;;;;;;;;5076412;28;20033;-84
2022/06/07 06:50:11;;;;;;;10.57;9.48;;;;;;;;;;5078401;28;20411;-84
2022/06/07 06:52:37;;;;;;;10.75;8.77;;;;;;;;;;5077230;28;20028;-85
2022/06/07 06:55:03;;;;;;;10.02;8.95;;;;;;;;;;5074845;28;20032;-84
2022/06/07 06:57:29;;;;;;;9.13;7.45;;;;;;;;;;5066432;28;20063;-85
2022/06/07 06:59:55;;;;;;;11.18;7.82;;;;;;;;;;5061237;28;20017;-82
2022/06/07 07:02:21;;;;;;;9.98;7.13;;;;;;;;;;5079229;28;20020;-82
2022/06/07 07:04:47;;;;;;;8.38;7.10;;;;;;;;;;5080862;28;20009;-82
2022/06/07 07:07:13;;;;;;;8.60;6.75;;;;;;;;;;5080461;28;20025;-82
2022/06/07 07:09:39;;;;;;;8.27;6.93;;;;;;;;;;5080904;28;20029;-81
2022/06/07 07:12:05;;;;;;;8.95;6.55;;;;;;;;;;5066784;28;20178;-80
2022/06/07 07:14:31;;;;;;;8.18;6.47;;;;;;;;;;5064927;28;20028;-81
2022/06/07 07:16:57;;;;;;;7.22;6.15;;;;;;;;;;5071727;28;20025;-80
2022/06/07 07:19:23;;;;;;;7.43;6.47;;;;;;;;;;5069482;28;20032;-80
2022/06/07 07:21:50;;;;;;;11.50;7.93;;;;;;;;;;5068542;28;20077;-80
2022/06/07 07:24:18;;;;;;;8.25;6.80;;;;;;;;;;5071979;28;20029;-81
2022/06/07 07:26:45;;;;;;;7.25;6.43;;;;;;;;;;5068703;28;20538;-81
2022/06/07 07:29:12;;;;;;;9.52;6.28;;;;;;;;;;5073044;28;20064;-82
2022/06/07 07:31:38;;;;;;;6.90;5.93;;;;;;;;;;5073661;28;20029;-82
2022/06/07 07:34:07;;;;;;;7.22;6.03;;;;;;;;;;5072245;28;20037;-81
2022/06/07 07:36:33;;;;;;;10.77;7.50;;;;;;;;;;5073185;28;20028;-81
2022/06/07 07:39:01;;;;;;;7.45;5.38;;;;;;;;;;5086231;28;20117;-81
2022/06/07 07:41:28;;;;;;;7.50;6.38;;;;;;;;;;5092801;28;20031;-81
2022/06/07 07:43:55;;;;;;;7.68;6.32;;;;;;;;;;5091395;28;20012;-81
2022/06/07 07:46:22;;;;;;;8.93;6.72;;;;;;;;;;5082761;28;20061;-81
2022/06/07 07:48:48;;;;;;;7.45;6.30;;;;;;;;;;5071691;28;20064;-81
2022/06/07 07:51:21;;;;;;;6.82;5.78;;;;;;;;;;5071619;28;20029;-82
2022/06/07 07:53:48;;;;;;;8.77;6.45;;;;;;;;;;5076629;28;20426;-82
2022/06/07 07:56:14;;;;;;;8.27;6.55;;;;;;;;;;5077044;28;20028;-81
2022/06/07 07:58:41;;;;;;;7.35;6.40;;;;;;;;;;5079258;28;20037;-81
2022/06/07 08:01:12;;;;;;;8.25;5.78;;;;;;;;;;5080912;28;20024;-82
2022/06/07 08:03:39;;;;;;;6.70;5.03;;;;;;;;;;5091968;28;20016;-82
2022/06/07 08:06:09;;;;;;;6.80;5.78;;;;;;;;;;5080222;28;20025;-82
2022/06/07 08:08:35;;;;;;;8.32;5.55;;;;;;;;;;5070467;28;20384;-82
2022/06/07 08:11:02;;;;;;;7.28;5.20;;;;;;;;;;5070702;28;20025;-81
2022/06/07 08:13:28;;;;;;;7.63;6.20;;;;;;;;;;5071401;28;20045;-82
2022/06/07 08:15:54;;;;;;;7.15;5.80;;;;;;;;;;5073870;28;20016;-81
2022/06/07 08:18:23;;;;;;;8.65;5.80;;;;;;;;;;5091738;28;20034;-81
2022/06/07 08:20:49;;;;;;;7.10;5.18;;;;;;;;;;5085687;28;20028;-82
2022/06/07 08:23:15;;;;;;;8.27;5.57;;;;;;;;;;5075812;28;20029;-82
2022/06/07 08:25:42;;;;;;;7.30;5.40;;;;;;;;;;5081456;28;20024;-83
2022/06/07 08:28:08;;;;;;;8.43;5.47;;;;;;;;;;5084141;28;20040;-83
2022/06/07 08:30:36;;;;;;;6.38;5.57;;;;;;;;;;5087803;28;20044;-82
2022/06/07 08:37:32;;;;;;;8.27;5.93;;;;;;;;;;5085539;28;20104;-83
2022/06/07 08:38:33;;;;;;;7.15;5.10;;;;;;;;;;5067688;28;20036;-84
2022/06/07 08:40:59;;;;;;;7.40;5.70;;;;;;;;;;5073763;28;20052;-84
2022/06/07 08:43:25;;;;;;;7.05;5.28;;;;;;;;;;5088748;28;20063;-82
2022/06/07 08:45:52;;;;;;;6.35;5.00;;;;;;;;;;5089880;28;20024;-82
2022/06/07 08:48:25;;;;;;;6.50;5.57;;;;;;;;;;5069243;28;20498;-84
2022/06/07 08:50:59;;;;;;;7.78;5.28;;;;;;;;;;5069059;28;20052;-83
2022/06/07 08:53:29;;;;;;;6.28;5.15;;;;;;;;;;5069105;28;20025;-84
2022/06/07 08:55:57;;;;;;;6.53;5.25;;;;;;;;;;5073534;28;20054;-84
2022/06/07 08:58:25;;;;;;;6.22;5.10;;;;;;;;;;5061081;28;20515;-84
2022/06/07 09:00:53;;;;;;;7.32;5.05;;;;;;;;;;5061066;28;20443;-84
2022/06/07 09:03:22;;;;;;;5.90;4.65;;;;;;;;;;5071823;28;20024;-83
2022/06/07 09:05:52;;;;;;;6.88;5.18;;;;;;;;;;5082563;28;20024;-81
2022/06/07 09:08:18;;;;;;;7.72;5.30;;;;;;;;;;5069814;28;20025;-82
2022/06/07 09:13:34;;;;;;;5.95;4.40;;;;;;;;;;5073677;28;20114;-83
2022/06/07 09:16:00;;;;;;;6.60;4.70;;;;;;;;;;5073436;28;20024;-82
2022/06/07 09:18:28;;;;;;;7.13;4.43;;;;;;;;;;5082316;28;19997;-82
2022/06/07 09:20:57;;;;;;;6.32;4.43;;;;;;;;;;5074737;28;20108;-83
2022/06/07 09:23:29;;;;;;;6.00;4.45;;;;;;;;;;5073393;28;20029;-83
2022/06/07 09:25:56;;;;;;;5.45;4.15;;;;;;;;;;5081024;28;20013;-82
2022/06/07 09:28:27;;;;;;;7.10;3.80;;;;;;;;;;5092269;28;20046;-83
2022/06/07 09:31:06;;;;;;;5.80;4.30;;;;;;;;;;5086869;28;20040;-82
2022/06/07 09:33:37;;;;;;;6.43;4.30;;;;;;;;;;5073661;28;20016;-82
2022/06/07 09:36:07;;;;;;;5.88;4.25;;;;;;;;;;5072517;28;20032;-82
2022/06/07 09:38:40;;;;;;;7.05;4.32;;;;;;;;;;5072378;28;20107;-81
2022/06/07 09:44:02;;;;;;;5.53;4.45;;;;;;;;;;5093050;28;20067;-82
2022/06/07 09:46:28;;;;;;;5.95;4.40;;;;;;;;;;5092886;28;20040;-83
2022/06/07 09:48:55;;;;;;;6.43;4.65;;;;;;;;;;5091941;28;20024;-83
2022/06/07 09:51:26;;;;;;;7.15;4.68;;;;;;;;;;5086010;28;20058;-82
2022/06/07 09:53:56;;;;;;;6.60;4.30;;;;;;;;;;5075213;28;20041;-83
2022/06/07 09:56:31;;;;;;;5.65;4.43;;;;;;;;;;5072845;28;20025;-82
2022/06/07 09:59:16;;;;;;;6.55;4.90;;;;;;;;;;5071537;28;20277;-82
2022/06/07 10:02:02;;;;;;;6.15;4.72;;;;;;;;;;5076961;28;20043;-81
2022/06/07 10:04:34;;;;;;;5.70;5.05;;;;;;;;;;5084101;28;20029;-83
2022/06/07 10:07:00;;;;;;;;;;;;;;;;;;5068585;28;20029;-81
2022/06/07 10:09:26;;;;;;;6.60;5.13;;;;;;;;;;5065173;28;19915;-83
2022/06/07 10:11:58;;;;;;;7.10;6.40;;;;;;;;;;5064882;28;20017;-83
2022/06/07 10:14:43;;;;;;;8.07;6.25;;;;;;;;;;5065140;28;20029;-83
2022/06/07 10:17:12;;;;;;;9.80;7.18;;;;;;;;;;5065665;28;20021;-83
2022/06/07 10:19:47;;;;;;;8.05;6.93;;;;;;;;;;5069925;28;20021;-82
2022/06/07 10:22:18;;;;;;;7.68;6.85;;;;;;;;;;5069771;28;20497;-83
2022/06/07 10:25:03;;;;;;;8.25;6.80;;;;;;;;;;5087945;28;20047;-83
2022/06/07 10:27:37;;;;;;;8.15;7.07;;;;;;;;;;5086806;28;20035;-84
2022/06/07 10:30:12;;;;;;;6.95;6.25;;;;;;;;;;5077327;28;20049;-84
2022/06/07 10:32:51;;;;;;;7.55;6.78;;;;;;;;;;5069242;28;20033;-83
2022/06/07 10:35:29;;;;;;;9.70;7.03;;;;;;;;;;5070552;28;20020;-83
2022/06/07 10:37:58;;;;;;;7.72;6.93;;;;;;;;;;5074185;28;20154;-83
2022/06/07 10:40:37;;;;;;;9.93;7.07;;;;;;;;;;5084908;28;20029;-82
2022/06/07 10:43:22;;;;;;;8.55;7.10;;;;;;;;;;5090756;28;20516;-81
2022/06/07 10:45:49;;;;;;;8.40;6.95;;;;;;;;;;5090581;28;20020;-82
2022/06/07 10:48:21;;;;;;;8.98;7.47;;;;;;;;;;5078413;28;20064;-83
2022/06/07 10:50:53;;;;;;;8.05;7.30;;;;;;;;;;5089801;28;20036;-82
2022/06/07 10:53:19;;;;;;;7.10;6.40;;;;;;;;;;5070834;28;20029;-80
2022/06/07 10:55:48;;;;;;;7.20;6.35;;;;;;;;;;5070150;28;20021;-82
2022/06/07 10:58:31;;;;;;;6.88;6.03;;;;;;;;;;5070971;28;20440;-82
2022/06/07 11:00:57;;;;;;;;;;;;;;;;;;5071142;28;20037;-82
2022/06/07 11:03:45;;;;;;;7.38;6.30;;;;;;;;;;5073421;28;19963;-82
2022/06/07 11:09:21;;;;;;;7.10;5.55;;;;;;;;;;5071745;28;20110;-82
2022/06/07 11:12:11;;;;;;;7.03;5.75;;;;;;;;;;5071349;28;20025;-82
2022/06/07 11:14:37;;;;;;;6.03;5.10;;;;;;;;;;5078018;28;20016;-83
2022/06/07 11:17:24;;;;;;;5.90;5.03;;;;;;;;;;5090688;28;20063;-83
2022/06/07 11:19:51;;;;;;;5.85;5.05;;;;;;;;;;5091160;28;20025;-83
2022/06/07 11:22:19;;;;;;;5.75;4.72;;;;;;;;;;5092931;28;20023;-83
2022/06/07 11:24:54;;;;;;;6.72;5.07;;;;;;;;;;5088206;28;20039;-82
2022/06/07 11:27:22;;;;;;;7.13;5.20;;;;;;;;;;5068992;28;20094;-84
2022/06/07 11:29:49;;;;;;;8.35;5.30;;;;;;;;;;5072104;28;20025;-82
2022/06/07 11:32:34;;;;;;;5.65;4.55;;;;;;;;;;5067151;28;20021;-82
2022/06/07 11:35:20;;;;;;;6.20;5.57;;;;;;;;;;5069755;28;20259;-83
2022/06/07 11:37:52;;;;;;;6.82;4.95;;;;;;;;;;5088276;28;20017;-82
2022/06/07 11:40:28;;;;;;;6.45;4.95;;;;;;;;;;5084784;28;20013;-83
2022/06/07 11:42:54;;;;;;;6.07;5.28;;;;;;;;;;5072744;28;20025;-81
2022/06/07 11:45:25;;;;;;;6.20;5.47;;;;;;;;;;5089771;28;20056;-81
2022/06/07 11:48:02;;;;;;;7.05;5.50;;;;;;;;;;5084242;28;20033;-82
2022/06/07 11:50:31;;;;;;;7.82;4.97;;;;;;;;;;5076049;28;20040;-82
2022/06/07 11:53:14;;;;;;;6.82;5.00;;;;;;;;;;5069873;28;20032;-83
2022/06/07 11:55:42;;;;;;;7.28;5.68;;;;;;;;;;5070899;28;20035;-82
2022/06/07 11:58:08;;;;;;;5.80;5.18;;;;;;;;;;5089399;28;20021;-83
2022/06/07 12:00:39;;;;;;;7.50;5.75;;;;;;;;;;5093654;28;20024;-82
2022/06/07 12:03:11;;;;;;;7.28;6.22;;;;;;;;;;5078364;28;20051;-83
2022/06/07 12:06:06;;;;;;;6.65;5.47;;;;;;;;;;5085750;28;20034;-83
2022/06/07 12:08:37;;;;;;;6.80;5.30;;;;;;;;;;5080893;28;20024;-82
2022/06/07 12:11:24;;;;;;;6.22;5.30;;;;;;;;;;5080815;28;20029;-82
2022/06/07 12:13:56;;;;;;;6.50;5.50;;;;;;;;;;5075865;28;20035;-81
2022/06/07 12:16:34;;;;;;;6.70;5.05;;;;;;;;;;5074336;28;20037;-84
2022/06/07 12:19:02;;;;;;;6.47;4.93;;;;;;;;;;5074909;28;20017;-82
2022/06/07 12:21:28;;;;;;;6.35;4.47;;;;;;;;;;5074443;28;20120;-82
2022/06/07 12:24:21;;;;;;;7.00;4.50;;;;;;;;;;5087521;28;20047;-82
2022/06/07 12:26:47;;;;;;;7.90;4.85;;;;;;;;;;5078959;28;20028;-82
2022/06/07 12:29:28;;;;;;;6.78;4.70;;;;;;;;;;5093588;28;20066;-82
2022/06/07 12:31:56;;;;;;;9.25;4.97;;;;;;;;;;5091283;28;20025;-81
2022/06/07 12:34:25;;;;;;;7.80;5.22;;;;;;;;;;5080062;28;20057;-81
2022/06/07 12:37:03;;;;;;;8.10;5.40;;;;;;;;;;5071610;28;20021;-83
2022/06/07 12:39:30;;;;;;;8.40;6.03;;;;;;;;;;5071714;28;20033;-81
2022/06/07 12:42:07;;;;;;;7.30;5.85;;;;;;;;;;5073366;28;20029;-80
2022/06/07 12:44:41;;;;;;;9.15;6.38;;;;;;;;;;5072814;28;20033;-81
2022/06/07 12:47:20;;;;;;;8.48;7.20;;;;;;;;;;5085369;28;20024;-82
2022/06/07 12:49:46;;;;;;;7.57;6.35;;;;;;;;;;5080276;28;20025;-81
2022/06/07 12:52:14;;;;;;;9.13;7.55;;;;;;;;;;5090532;28;20032;-82
2022/06/07 12:54:40;;;;;;;10.68;7.82;;;;;;;;;;5091405;28;20048;-80
2022/06/07 12:57:15;;;;;;;9.73;7.95;;;;;;;;;;5090355;28;20036;-81
2022/06/07 12:59:50;;;;;;;9.60;8.00;;;;;;;;;;5096076;28;20016;-82
2022/06/07 13:02:27;;;;;;;14.80;9.23;;;;;;;;;;5091991;28;20029;-80
2022/06/07 13:04:58;;;;;;;11.15;9.52;;;;;;;;;;5089254;28;20051;-83
2022/06/07 13:07:30;;;;;;;10.52;8.82;;;;;;;;;;5087730;28;20021;-83
2022/06/07 13:10:01;;;;;;;11.25;9.75;;;;;;;;;;5069886;28;20028;-83
2022/06/07 13:12:35;;;;;;;10.40;9.30;;;;;;;;;;5079138;28;20040;-82
2022/06/07 13:15:04;;;;;;;12.73;9.82;;;;;;;;;;5069970;28;20374;-83
2022/06/07 13:17:37;;;;;;;11.63;9.63;;;;;;;;;;5074859;28;20028;-84
2022/06/07 13:20:05;;;;;;;14.00;10.65;;;;;;;;;;5071239;28;20020;-81
2022/06/07 13:22:37;;;;;;;11.57;9.80;;;;;;;;;;5071562;28;20044;-84
2022/06/07 13:25:17;;;;;;;11.93;9.60;;;;;;;;;;5078580;28;20028;-82
2022/06/07 13:27:51;;;;;;;11.32;8.77;;;;;;;;;;5091256;28;20301;-83
2022/06/07 13:30:25;;;;;;;10.52;9.30;;;;;;;;;;5090253;28;20099;-83
2022/06/07 13:33:10;;;;;;;10.75;9.65;;;;;;;;;;5080728;28;20078;-82
2022/06/07 13:35:57;;;;;;;10.27;9.10;;;;;;;;;;5090035;28;20016;-82
2022/06/07 13:38:38;;;;;;;10.52;8.63;;;;;;;;;;5089076;28;20020;-83
2022/06/07 13:41:10;;;;;;;9.45;8.45;;;;;;;;;;5089300;28;20035;-84
2022/06/07 13:43:55;;;;;;;10.00;8.75;;;;;;;;;;5090645;28;20024;-83
2022/06/07 13:46:29;;;;;;;9.30;8.30;;;;;;;;;;5081179;28;20050;-82
2022/06/07 13:55:03;;;;;;;11.95;8.15;;;;;;;;;;5070072;28;20086;-83
2022/06/07 13:57:29;;;;;;;9.65;8.65;;;;;;;;;;5086464;28;20029;-82
2022/06/07 13:59:55;;;;;;;10.48;8.75;;;;;;;;;;5073029;28;20036;-84
2022/06/07 14:02:21;;;;;;;10.30;8.80;;;;;;;;;;5069080;28;20075;-83
2022/06/07 14:04:47;;;;;;;9.85;7.90;;;;;;;;;;5068685;28;20021;-82
2022/06/07 14:07:14;;;;;;;10.70;8.73;;;;;;;;;;5088096;28;20033;-84
2022/06/07 14:09:41;;;;;;;10.52;9.40;;;;;;;;;;5088176;28;20024;-83
2022/06/07 14:12:08;;;;;;;10.45;8.45;;;;;;;;;;5088106;28;20016;-83
2022/06/07 14:14:34;;;;;;;11.23;8.68;;;;;;;;;;5086861;28;20036;-83
2022/06/07 14:17:02;;;;;;;10.75;8.55;;;;;;;;;;5086088;28;20028;-82
2022/06/07 14:19:49;;;;;;;10.30;8.27;;;;;;;;;;5067273;28;20029;-82
2022/06/07 14:22:17;;;;;;;10.95;8.63;;;;;;;;;;5065912;28;20017;-81
2022/06/07 14:24:43;;;;;;;12.82;9.70;;;;;;;;;;5065724;28;20025;-79
2022/06/07 14:27:12;;;;;;;10.02;8.90;;;;;;;;;;5066364;28;20079;-80
2022/06/07 14:29:38;;;;;;;10.13;8.20;;;;;;;;;;5085418;28;20051;-80
2022/06/07 14:32:05;;;;;;;10.98;9.00;;;;;;;;;;5085746;28;20487;-80
2022/06/07 14:34:31;;;;;;;12.80;9.07;;;;;;;;;;5083208;28;20091;-79
2022/06/07 14:36:59;;;;;;;10.68;8.75;;;;;;;;;;5085058;28;20025;-79
2022/06/07 14:39:25;;;;;;;11.43;9.00;;;;;;;;;;5069080;28;20028;-80
2022/06/07 14:41:51;;;;;;;11.25;9.52;;;;;;;;;;5072875;28;20090;-79
2022/06/07 14:44:17;;;;;;;10.93;9.73;;;;;;;;;;5083069;28;20268;-80
2022/06/07 14:46:44;;;;;;;13.10;9.88;;;;;;;;;;5079777;28;20054;-80
2022/06/07 14:49:20;;;;;;;11.73;10.20;;;;;;;;;;5084257;28;20025;-79
2022/06/07 14:51:49;;;;;;;12.13;9.52;;;;;;;;;;5084882;28;20029;-79
2022/06/07 14:54:15;;;;;;;11.73;9.80;;;;;;;;;;5083308;28;20031;-80
2022/06/07 14:56:41;;;;;;;10.77;8.93;;;;;;;;;;5080276;28;20033;-79
2022/06/07 14:59:07;;;;;;;11.82;10.32;;;;;;;;;;5071278;28;20033;-79
2022/06/07 15:01:35;;;;;;;13.30;10.65;;;;;;;;;;5064327;28;20481;-79
2022/06/07 15:04:03;;;;;;;11.88;10.68;;;;;;;;;;5078432;28;20039;-79
2022/06/07 15:06:33;;;;;;;14.40;10.52;;;;;;;;;;5081989;28;20480;-79
2022/06/07 15:09:00;;;;;;;11.10;8.90;;;;;;;;;;5064911;28;20037;-80
2022/06/07 15:11:29;;;;;;;9.57;8.50;;;;;;;;;;5064953;28;20052;-79
2022/06/07 15:13:55;;;;;;;9.82;7.43;;;;;;;;;;5065255;28;20013;-80
2022/06/07 15:16:21;;;;;;;8.70;7.03;;;;;;;;;;5064864;28;20032;-80
2022/06/07 15:18:48;;;;;;;9.68;7.57;;;;;;;;;;5083046;28;20403;-80